createdAt,value
2023-03-17T00:01:56.349Z,3.38
2023-03-17T00:04:24.837Z,4.88
2023-03-17T00:06:53.150Z,3.67
2023-03-17T00:09:22.496Z,8.32
2023-03-17T00:11:51.019Z,3.88
2023-03-17T00:14:19.996Z,5.25
2023-03-17T00:16:52.096Z,6.90
2023-03-17T00:19:33.102Z,6.10
2023-03-17T00:22:01.375Z,7.43
2023-03-17T00:24:29.169Z,4.18
2023-03-17T00:26:56.128Z,4.70
2023-03-17T00:29:23.924Z,2.35
2023-03-17T00:31:51.281Z,3.42
2023-03-17T00:34:19.449Z,6.22
2023-03-17T00:36:48.304Z,9.23
2023-03-17T00:41:43.766Z,4.47
2023-03-17T00:44:11.856Z,6.72
2023-03-17T00:46:41.766Z,4.88
2023-03-17T00:49:20.598Z,5.53
2023-03-17T00:51:48.821Z,6.97
2023-03-17T00:54:16.838Z,7.50
2023-03-17T00:56:44.449Z,8.13
2023-03-17T00:59:19.299Z,5.35
2023-03-17T01:01:47.642Z,3.95
2023-03-17T01:04:15.730Z,8.48
2023-03-17T01:06:43.366Z,7.35
2023-03-17T01:09:18.580Z,6.75
2023-03-17T01:11:45.743Z,5.53
2023-03-17T01:14:13.595Z,5.32
2023-03-17T01:16:40.964Z,10.02
2023-03-17T01:19:09.313Z,4.40
2023-03-17T01:21:36.686Z,3.72
2023-03-17T01:24:04.548Z,8.82
2023-03-17T01:26:31.668Z,8.30
2023-03-17T01:28:59.059Z,9.73
2023-03-17T01:31:26.356Z,7.57
2023-03-17T01:33:54.074Z,6.78
2023-03-17T01:36:21.039Z,14.57
2023-03-17T01:38:49.700Z,4.68
2023-03-17T01:41:21.013Z,10.60
2023-03-17T01:43:48.332Z,10.25
2023-03-17T01:46:29.413Z,4.18
2023-03-17T01:49:30.850Z,7.80
2023-03-17T01:52:16.428Z,5.50
2023-03-17T01:54:50.680Z,7.18
2023-03-17T01:57:28.621Z,5.80
2023-03-17T02:00:11.299Z,5.65
2023-03-17T02:02:43.920Z,8.25
2023-03-17T02:05:13.926Z,5.63
2023-03-17T02:07:41.644Z,5.47
2023-03-17T02:10:09.904Z,6.10
2023-03-17T02:12:37.205Z,5.82
2023-03-17T02:15:05.999Z,3.80
2023-03-17T02:17:32.913Z,6.50
2023-03-17T02:20:29.654Z,3.72
2023-03-17T02:22:57.381Z,5.65
2023-03-17T02:25:26.179Z,4.03
2023-03-17T02:27:57.824Z,4.93
2023-03-17T02:30:25.517Z,3.75
2023-03-17T02:32:52.512Z,7.03
2023-03-17T02:35:20.537Z,4.28
2023-03-17T02:37:47.651Z,8.45
2023-03-17T02:40:15.802Z,8.32
2023-03-17T02:42:42.773Z,9.25
2023-03-17T02:45:12.115Z,3.80
2023-03-17T02:47:39.456Z,4.72
2023-03-17T02:50:08.874Z,5.25
2023-03-17T02:52:35.955Z,2.95
2023-03-17T02:55:02.896Z,4.60
2023-03-17T02:57:29.927Z,4.97
2023-03-17T02:59:56.846Z,4.22
2023-03-17T03:02:23.768Z,5.10
2023-03-17T03:04:50.933Z,2.97
2023-03-17T03:07:18.155Z,5.13
2023-03-17T03:09:45.567Z,3.05
2023-03-17T03:12:13.907Z,6.47
2023-03-17T03:14:41.097Z,3.58
2023-03-17T03:17:09.180Z,7.18
2023-03-17T03:19:36.127Z,3.67
2023-03-17T03:22:03.236Z,3.10
2023-03-17T03:24:30.144Z,3.97
2023-03-17T03:26:57.312Z,6.93
2023-03-17T03:29:24.246Z,6.25
2023-03-17T03:31:51.304Z,3.55
2023-03-17T03:34:18.161Z,4.75
2023-03-17T03:36:45.317Z,5.22
2023-03-17T03:39:14.467Z,4.47
2023-03-17T03:41:41.971Z,3.88
2023-03-17T03:44:09.146Z,6.68
2023-03-17T03:46:36.070Z,1.65
2023-03-17T03:49:03.107Z,2.35
2023-03-17T03:51:30.154Z,5.10
2023-03-17T03:53:57.129Z,2.75
2023-03-17T03:56:24.332Z,6.45
2023-03-17T03:58:51.401Z,5.00
2023-03-17T04:01:18.660Z,2.65
2023-03-17T04:03:47.454Z,3.67
2023-03-17T04:06:14.472Z,3.90
2023-03-17T04:08:41.300Z,5.75
2023-03-17T04:11:08.991Z,3.67
2023-03-17T04:13:36.092Z,2.72
2023-03-17T04:16:03.479Z,7.38
2023-03-17T04:18:31.689Z,8.32
2023-03-17T04:20:58.619Z,3.13
2023-03-17T04:23:25.510Z,5.93
2023-03-17T04:25:53.232Z,6.25
2023-03-17T04:28:22.561Z,5.57
2023-03-17T04:30:49.631Z,8.95
2023-03-17T04:33:16.853Z,3.20
2023-03-17T04:35:44.100Z,9.07
2023-03-17T04:38:13.242Z,3.28
2023-03-17T04:40:40.192Z,10.05
2023-03-17T04:43:07.314Z,4.95
2023-03-17T04:45:34.343Z,9.90
2023-03-17T04:48:01.571Z,4.85
2023-03-17T04:50:28.529Z,7.68
2023-03-17T04:52:55.812Z,8.43
2023-03-17T04:55:22.725Z,3.88
2023-03-17T04:57:49.856Z,5.78
2023-03-17T05:00:17.015Z,11.32
2023-03-17T05:02:44.240Z,9.73
2023-03-17T05:05:11.235Z,6.20
2023-03-17T05:07:38.215Z,6.30
2023-03-17T05:10:06.540Z,2.40
2023-03-17T05:12:33.485Z,10.98
2023-03-17T05:15:00.439Z,3.30
2023-03-17T05:17:27.400Z,11.85
2023-03-17T05:19:54.434Z,6.80
2023-03-17T05:22:21.332Z,6.22
2023-03-17T05:24:48.205Z,4.25
2023-03-17T05:27:15.521Z,6.28
2023-03-17T05:29:42.469Z,7.97
2023-03-17T05:32:09.477Z,6.95
2023-03-17T05:34:36.549Z,4.78
2023-03-17T05:37:03.471Z,4.55
2023-03-17T05:39:30.363Z,5.75
2023-03-17T05:41:57.716Z,7.90
2023-03-17T05:44:24.896Z,5.95
2023-03-17T05:46:51.842Z,5.13
2023-03-17T05:49:19.177Z,8.02
2023-03-17T05:51:46.554Z,3.08
2023-03-17T05:54:13.896Z,6.38
2023-03-17T05:56:42.804Z,6.85
2023-03-17T05:59:10.579Z,3.72
2023-03-17T06:01:37.549Z,10.57
2023-03-17T06:04:04.463Z,6.55
2023-03-17T06:06:32.227Z,4.60
2023-03-17T06:08:59.558Z,7.38
2023-03-17T06:11:26.758Z,10.02
2023-03-17T06:13:54.009Z,4.00
2023-03-17T06:16:21.136Z,3.83
2023-03-17T06:18:48.799Z,5.07
2023-03-17T06:21:16.012Z,8.52
2023-03-17T06:23:43.612Z,4.25
2023-03-17T06:26:11.013Z,19.92
2023-03-17T06:28:37.988Z,7.18
2023-03-17T06:31:07.238Z,8.48
2023-03-17T06:33:34.833Z,6.65
2023-03-17T06:36:01.984Z,4.72
2023-03-17T06:38:29.144Z,7.55
2023-03-17T06:40:56.028Z,6.00
2023-03-17T06:43:24.994Z,1.27
2023-03-17T06:45:52.598Z,7.88
2023-03-17T06:48:19.708Z,4.32
2023-03-17T06:50:47.875Z,4.15
2023-03-17T06:53:14.845Z,4.93
2023-03-17T06:55:42.172Z,9.20
2023-03-17T06:58:10.735Z,5.75
2023-03-17T07:00:40.645Z,7.05
2023-03-17T07:03:07.887Z,3.17
2023-03-17T07:05:34.858Z,9.13
2023-03-17T07:08:01.790Z,3.50
2023-03-17T07:10:28.640Z,4.20
2023-03-17T07:12:55.987Z,4.78
2023-03-17T07:15:24.074Z,4.45
2023-03-17T07:17:51.050Z,9.70
2023-03-17T07:20:19.007Z,4.60
2023-03-17T07:22:46.581Z,7.07
2023-03-17T07:25:13.476Z,9.57
2023-03-17T07:27:40.402Z,7.43
2023-03-17T07:30:08.387Z,10.35
2023-03-17T07:32:35.570Z,7.45
2023-03-17T07:35:02.941Z,3.47
2023-03-17T07:37:29.867Z,5.50
2023-03-17T07:39:56.952Z,6.80
2023-03-17T07:42:23.860Z,6.75
2023-03-17T07:44:50.959Z,4.78
2023-03-17T07:47:17.859Z,8.23
2023-03-17T07:49:44.904Z,7.03
2023-03-17T07:52:12.738Z,5.60
2023-03-17T07:54:43.032Z,3.72
2023-03-17T07:57:10.547Z,7.20
2023-03-17T07:59:38.333Z,6.32
2023-03-17T08:02:05.349Z,11.60
2023-03-17T08:04:32.458Z,4.53
2023-03-17T08:06:59.360Z,5.75
2023-03-17T08:09:27.220Z,8.10
2023-03-17T08:11:54.154Z,8.52
2023-03-17T08:14:21.374Z,12.93
2023-03-17T08:16:48.352Z,6.10
2023-03-17T08:19:16.320Z,2.15
2023-03-17T08:21:43.258Z,4.28
2023-03-17T08:24:10.976Z,12.93
2023-03-17T08:26:38.280Z,5.63
2023-03-17T08:29:05.540Z,5.80
2023-03-17T08:31:33.987Z,7.05
2023-03-17T08:34:02.711Z,4.25
2023-03-17T08:36:30.300Z,28.95
2023-03-17T08:38:57.229Z,12.50
2023-03-17T08:41:26.951Z,4.68
2023-03-17T08:43:55.007Z,6.50
2023-03-17T08:46:28.724Z,6.85
2023-03-17T08:48:56.816Z,8.77
2023-03-17T08:51:26.724Z,3.83
2023-03-17T08:53:55.308Z,6.63
2023-03-17T08:56:23.042Z,6.88
2023-03-17T08:58:51.057Z,12.88
2023-03-17T09:01:19.108Z,2.10
2023-03-17T09:03:46.873Z,7.18
2023-03-17T09:06:14.481Z,6.13
2023-03-17T09:08:45.125Z,8.05
2023-03-17T09:11:16.585Z,6.43
2023-03-17T09:13:44.325Z,6.50
2023-03-17T09:16:11.529Z,3.67
2023-03-17T09:18:38.952Z,11.70
2023-03-17T09:21:06.496Z,7.00
2023-03-17T09:23:33.832Z,5.80
2023-03-17T09:26:01.265Z,10.82
2023-03-17T09:28:29.222Z,5.35
2023-03-17T09:31:11.478Z,8.73
2023-03-17T09:33:42.453Z,3.97
2023-03-17T09:36:10.511Z,5.63
2023-03-17T09:38:37.936Z,7.88
2023-03-17T09:41:19.908Z,9.48
2023-03-17T09:43:52.996Z,2.53
2023-03-17T09:46:26.127Z,6.65
2023-03-17T09:48:56.048Z,5.25
2023-03-17T09:51:23.061Z,7.25
2023-03-17T09:53:59.995Z,4.70
2023-03-17T09:56:34.675Z,9.65
2023-03-17T09:59:33.284Z,12.15
2023-03-17T10:02:00.427Z,6.65
2023-03-17T10:04:28.196Z,9.68
2023-03-17T10:07:04.726Z,19.42
2023-03-17T10:09:54.775Z,11.00
2023-03-17T10:12:36.288Z,6.57
2023-03-17T10:15:13.641Z,12.18
2023-03-17T10:17:42.256Z,4.93
2023-03-17T10:20:14.177Z,5.13
2023-03-17T10:22:49.298Z,11.98
2023-03-17T10:25:22.461Z,13.82
2023-03-17T10:27:57.186Z,11.05
2023-03-17T10:30:24.325Z,7.40
2023-03-17T10:32:52.956Z,12.07
2023-03-17T10:35:22.163Z,5.97
2023-03-17T10:37:49.295Z,11.93
2023-03-17T10:40:22.826Z,9.43
2023-03-17T10:43:00.108Z,38.20
2023-03-17T10:45:33.236Z,10.77
2023-03-17T10:48:02.680Z,5.55
2023-03-17T10:50:33.189Z,25.77
2023-03-17T10:53:28.325Z,11.35
2023-03-17T10:56:02.466Z,9.30
2023-03-17T10:58:36.278Z,12.27
2023-03-17T11:01:08.549Z,12.75
2023-03-17T11:03:42.124Z,12.60
2023-03-17T11:06:11.855Z,11.90
2023-03-17T11:08:55.670Z,9.43
2023-03-17T11:11:30.476Z,5.03
2023-03-17T11:14:13.518Z,8.70
2023-03-17T11:16:57.357Z,6.68
2023-03-17T11:19:49.245Z,9.07
2023-03-17T11:22:24.258Z,9.65
2023-03-17T11:24:59.588Z,17.20
2023-03-17T11:27:32.504Z,10.80
2023-03-17T11:30:33.075Z,7.53
2023-03-17T11:33:18.953Z,9.63
2023-03-17T11:36:00.542Z,9.75
2023-03-17T11:38:30.195Z,12.13
2023-03-17T11:41:15.593Z,6.75
2023-03-17T11:44:07.428Z,8.88
2023-03-17T11:46:46.695Z,5.60
2023-03-17T11:49:38.799Z,7.95
2023-03-17T11:52:34.409Z,23.05
2023-03-17T11:55:44.679Z,9.38
2023-03-17T11:58:27.478Z,13.93
2023-03-17T12:00:58.476Z,8.38
2023-03-17T12:03:38.860Z,7.90
2023-03-17T12:06:13.946Z,13.93
2023-03-17T12:08:52.992Z,16.67
2023-03-17T12:11:28.998Z,13.25
2023-03-17T12:14:19.224Z,7.15
2023-03-17T12:17:02.405Z,10.50
2023-03-17T12:20:09.597Z,9.52
2023-03-17T12:22:42.885Z,11.45
2023-03-17T12:25:20.851Z,18.90
2023-03-17T12:28:04.422Z,5.93
2023-03-17T12:30:41.162Z,12.07
2023-03-17T12:33:40.737Z,5.95
2023-03-17T12:36:11.699Z,7.38
2023-03-17T12:38:51.962Z,8.95
2023-03-17T12:42:17.461Z,10.18
2023-03-17T12:45:22.398Z,9.27
2023-03-17T12:48:11.167Z,11.75
2023-03-17T12:51:08.049Z,8.70
2023-03-17T12:53:47.992Z,16.27
2023-03-17T12:56:33.602Z,6.53
2023-03-17T12:59:13.670Z,11.13
2023-03-17T13:01:46.749Z,10.30
2023-03-17T13:04:38.056Z,10.98
2023-03-17T13:07:17.275Z,5.18
2023-03-17T13:10:09.594Z,11.77
2023-03-17T13:12:39.491Z,7.28
2023-03-17T13:15:21.792Z,7.82
2023-03-17T13:17:49.182Z,8.27
2023-03-17T13:20:19.046Z,11.00
2023-03-17T13:23:44.228Z,8.20
2023-03-17T13:26:20.940Z,8.07
2023-03-17T13:28:50.293Z,8.68
2023-03-17T13:31:33.598Z,8.95
2023-03-17T13:34:15.277Z,6.35
2023-03-17T13:37:26.354Z,7.03
2023-03-17T13:40:25.465Z,6.65
2023-03-17T13:43:13.186Z,9.63
2023-03-17T13:45:42.163Z,6.55
2023-03-17T13:48:38.089Z,12.88
2023-03-17T13:51:25.376Z,9.63
2023-03-17T13:53:56.507Z,15.45
2023-03-17T13:56:45.572Z,8.55
2023-03-17T13:59:19.602Z,12.63
2023-03-17T14:01:55.785Z,6.78
2023-03-17T14:04:47.286Z,7.90
2023-03-17T14:07:21.436Z,18.83
2023-03-17T14:09:53.517Z,9.68
2023-03-17T14:12:41.841Z,6.80
2023-03-17T14:15:14.785Z,7.13
2023-03-17T14:17:47.461Z,7.90
2023-03-17T14:20:18.503Z,6.38
2023-03-17T14:22:54.204Z,7.30
2023-03-17T14:25:24.153Z,10.80
2023-03-17T14:27:57.009Z,6.45
2023-03-17T14:30:26.605Z,5.95
2023-03-17T14:33:12.080Z,5.07
2023-03-17T14:35:43.347Z,17.17
2023-03-17T14:38:28.444Z,6.57
2023-03-17T14:41:04.381Z,20.20
2023-03-17T14:43:32.498Z,8.57
2023-03-17T14:46:02.597Z,10.27
2023-03-17T14:48:33.177Z,8.30
2023-03-17T14:51:08.491Z,10.00
2023-03-17T14:53:39.893Z,8.70
2023-03-17T14:56:07.593Z,10.00
2023-03-17T14:58:42.518Z,7.00
2023-03-17T15:01:22.539Z,11.52
2023-03-17T15:04:13.595Z,10.20
2023-03-17T15:06:58.272Z,13.32
2023-03-17T15:09:39.329Z,5.38
2023-03-17T15:12:22.267Z,7.72
2023-03-17T15:14:56.500Z,10.48
2023-03-17T15:17:34.911Z,13.13
2023-03-17T15:20:05.371Z,7.88
2023-03-17T15:22:35.316Z,6.43
2023-03-17T15:25:26.037Z,7.65
2023-03-17T15:27:54.045Z,12.75
2023-03-17T15:30:21.446Z,9.98
2023-03-17T15:32:53.181Z,13.32
2023-03-17T15:35:20.134Z,14.10
2023-03-17T15:37:47.224Z,11.70
2023-03-17T15:40:15.736Z,16.42
2023-03-17T15:42:42.800Z,16.80
2023-03-17T15:45:11.619Z,12.13
2023-03-17T15:47:41.685Z,10.52
2023-03-17T15:50:30.243Z,12.60
2023-03-17T15:52:57.970Z,12.43
2023-03-17T15:55:29.917Z,10.45
2023-03-17T15:57:58.249Z,12.70
2023-03-17T16:00:29.830Z,9.57
2023-03-17T16:03:02.266Z,15.60
2023-03-17T16:05:35.161Z,14.95
2023-03-17T16:08:02.402Z,13.48
2023-03-17T16:10:31.923Z,18.02
2023-03-17T16:12:59.562Z,11.25
2023-03-17T16:15:31.501Z,12.77
2023-03-17T16:18:04.376Z,11.07
2023-03-17T16:20:40.236Z,14.60
2023-03-17T16:25:59.326Z,14.30
2023-03-17T16:28:32.942Z,18.42
2023-03-17T16:31:02.406Z,16.92
2023-03-17T16:33:36.657Z,13.82
2023-03-17T16:36:03.664Z,14.55
2023-03-17T16:38:32.798Z,17.88
2023-03-17T16:41:19.251Z,15.40
2023-03-17T16:43:51.083Z,17.83
2023-03-17T16:46:19.709Z,19.90
2023-03-17T16:48:48.379Z,23.05
2023-03-17T16:51:15.521Z,20.58
2023-03-17T16:53:42.371Z,20.67
2023-03-17T16:56:19.455Z,23.63
2023-03-17T16:58:47.425Z,19.75
2023-03-17T17:01:21.783Z,16.77
2023-03-17T17:03:49.800Z,20.33
2023-03-17T17:06:18.630Z,19.52
2023-03-17T17:08:46.450Z,24.50
2023-03-17T17:11:14.716Z,20.77
2023-03-17T17:13:43.450Z,22.42
2023-03-17T17:16:32.164Z,19.42
2023-03-17T17:18:59.878Z,22.67
2023-03-17T17:21:27.838Z,20.25
2023-03-17T17:23:55.809Z,30.92
2023-03-17T17:26:23.362Z,24.30
2023-03-17T17:28:50.556Z,29.83
2023-03-17T17:31:17.803Z,20.90
2023-03-17T17:33:45.177Z,19.35
2023-03-17T17:36:15.241Z,22.58
2023-03-17T17:38:42.866Z,26.05
2023-03-17T17:41:12.024Z,22.45
2023-03-17T17:43:39.754Z,24.33
2023-03-17T17:46:30.941Z,22.10
2023-03-17T17:48:58.044Z,22.50
2023-03-17T17:51:24.936Z,25.38
2023-03-17T17:53:51.909Z,31.67
2023-03-17T17:56:18.987Z,28.63
2023-03-17T17:58:46.574Z,27.63
2023-03-17T18:01:16.965Z,23.13
2023-03-17T18:03:43.933Z,30.27
2023-03-17T18:06:13.165Z,30.98
2023-03-17T18:08:40.907Z,31.30
2023-03-17T18:11:08.062Z,27.55
2023-03-17T18:13:36.234Z,29.70
2023-03-17T18:16:03.972Z,32.65
2023-03-17T18:18:32.613Z,27.88
2023-03-17T18:20:59.971Z,28.63
2023-03-17T18:23:27.473Z,32.00
2023-03-17T18:26:04.741Z,28.55
2023-03-17T18:28:32.150Z,36.00
2023-03-17T18:31:09.648Z,26.63
2023-03-17T18:33:37.378Z,30.33
2023-03-17T18:36:08.768Z,33.40
2023-03-17T18:38:36.398Z,30.15
2023-03-17T18:41:03.887Z,29.50
2023-03-17T18:43:30.990Z,33.20
2023-03-17T18:45:57.939Z,32.17
2023-03-17T18:48:25.012Z,24.70
2023-03-17T18:50:51.950Z,34.80
2023-03-17T18:53:19.097Z,32.15
2023-03-17T18:55:46.261Z,29.35
2023-03-17T18:58:13.187Z,28.67
2023-03-17T19:00:40.277Z,27.50
2023-03-17T19:03:07.383Z,31.80
2023-03-17T19:05:38.483Z,40.22
2023-03-17T19:08:05.595Z,32.20
2023-03-17T19:10:32.894Z,40.40
2023-03-17T19:13:00.028Z,33.47
2023-03-17T19:15:26.977Z,28.35
2023-03-17T19:17:53.815Z,36.42
2023-03-17T19:20:20.791Z,29.92
2023-03-17T19:22:47.704Z,27.88
2023-03-17T19:25:16.516Z,32.72
2023-03-17T19:27:43.437Z,28.10
2023-03-17T19:30:11.028Z,34.88
2023-03-17T19:32:38.055Z,41.42
2023-03-17T19:35:05.816Z,37.90
2023-03-17T19:37:32.737Z,36.03
2023-03-17T19:39:59.774Z,39.47
2023-03-17T19:42:26.712Z,31.75
2023-03-17T19:44:53.603Z,37.90
2023-03-17T19:47:20.497Z,35.33
2023-03-17T19:49:47.636Z,35.13
2023-03-17T19:52:14.711Z,29.33
2023-03-17T19:54:46.022Z,40.17
2023-03-17T19:57:13.924Z,28.75
2023-03-17T19:59:41.033Z,36.92
2023-03-17T20:02:08.024Z,37.05
2023-03-17T20:04:35.012Z,35.00
2023-03-17T20:07:01.903Z,45.05
2023-03-17T20:09:28.803Z,30.88
2023-03-17T20:11:56.665Z,36.80
2023-03-17T20:14:24.110Z,36.78
2023-03-17T20:16:52.031Z,30.40
2023-03-17T20:19:19.044Z,35.90
2023-03-17T20:21:46.102Z,36.63
2023-03-17T20:24:14.780Z,39.53
2023-03-17T20:26:43.485Z,34.83
2023-03-17T20:29:14.319Z,38.15
2023-03-17T20:31:42.472Z,36.65
2023-03-17T20:34:10.634Z,32.20
2023-03-17T20:36:42.131Z,32.08
2023-03-17T20:39:13.819Z,34.55
2023-03-17T20:41:41.375Z,31.35
2023-03-17T20:44:08.247Z,38.33
2023-03-17T20:46:35.435Z,31.67
2023-03-17T20:49:03.195Z,27.77
2023-03-17T20:51:30.893Z,32.70
2023-03-17T20:53:58.052Z,34.63
2023-03-17T20:56:26.637Z,26.88
2023-03-17T20:58:53.622Z,26.92
2023-03-17T21:01:21.756Z,34.53
2023-03-17T21:03:49.281Z,29.40
2023-03-17T21:06:17.679Z,35.22
2023-03-17T21:08:46.164Z,32.20
2023-03-17T21:11:19.040Z,37.53
2023-03-17T21:13:46.613Z,31.27
2023-03-17T21:16:19.819Z,35.10
2023-03-17T21:18:47.608Z,33.05
2023-03-17T21:21:14.962Z,39.50
2023-03-17T21:23:41.952Z,34.75
2023-03-17T21:26:09.278Z,34.95
2023-03-17T21:28:38.679Z,30.67
2023-03-17T21:31:07.002Z,31.08
2023-03-17T21:33:34.724Z,34.42
2023-03-17T21:36:02.032Z,25.45
2023-03-17T21:38:29.701Z,29.23
2023-03-17T21:40:57.664Z,36.28
2023-03-17T21:43:25.376Z,32.13
2023-03-17T21:45:52.519Z,37.65
2023-03-17T21:48:20.669Z,33.30
2023-03-17T21:50:48.960Z,31.02
2023-03-17T21:53:15.953Z,27.00
2023-03-17T21:55:42.840Z,33.97
2023-03-17T21:58:09.773Z,28.83
2023-03-17T22:00:45.057Z,27.50
2023-03-17T22:03:12.248Z,30.02
2023-03-17T22:05:39.151Z,31.73
2023-03-17T22:08:06.538Z,28.60
2023-03-17T22:10:33.882Z,31.85
2023-03-17T22:13:01.081Z,32.33
2023-03-17T22:15:29.222Z,27.58
2023-03-17T22:17:57.752Z,28.17
2023-03-17T22:20:24.619Z,34.08
2023-03-17T22:22:51.527Z,33.55
2023-03-17T22:25:18.474Z,28.48
2023-03-17T22:27:46.869Z,29.95
2023-03-17T22:30:14.628Z,30.92
2023-03-17T22:32:41.634Z,28.63
2023-03-17T22:35:08.832Z,28.00
2023-03-17T22:37:36.822Z,29.08
2023-03-17T22:40:06.395Z,33.65
2023-03-17T22:42:33.733Z,29.83
2023-03-17T22:45:00.684Z,27.55
2023-03-17T22:47:27.534Z,29.27
2023-03-17T22:49:54.425Z,24.30
2023-03-17T22:52:21.400Z,33.67
2023-03-17T22:54:48.289Z,26.60
2023-03-17T22:57:15.628Z,26.05
2023-03-17T22:59:43.012Z,25.35
2023-03-17T23:02:11.339Z,29.33
2023-03-17T23:04:38.189Z,23.70
2023-03-17T23:07:05.608Z,26.33
2023-03-17T23:09:32.851Z,25.35
2023-03-17T23:12:00.605Z,27.67
2023-03-17T23:14:27.567Z,27.67
2023-03-17T23:16:54.809Z,28.02
2023-03-17T23:19:22.254Z,26.10
2023-03-17T23:21:49.297Z,25.27
2023-03-17T23:24:16.821Z,27.08
2023-03-17T23:26:43.713Z,29.67
2023-03-17T23:29:10.671Z,31.17
2023-03-17T23:31:38.357Z,22.77
2023-03-17T23:34:06.717Z,26.92
2023-03-17T23:36:33.925Z,23.45
2023-03-17T23:39:02.271Z,22.80
2023-03-17T23:41:29.601Z,25.92
2023-03-17T23:43:56.815Z,21.38
2023-03-17T23:46:23.772Z,18.75
2023-03-17T23:48:50.847Z,26.80
2023-03-17T23:51:18.279Z,28.38
2023-03-17T23:53:46.473Z,27.13
2023-03-17T23:56:13.432Z,27.67
2023-03-17T23:58:43.416Z,34.95
